sensor_id;sensor_type;location;lat;lon;timestamp;P1;durP1;ratioP1;P2;durP2;ratioP2
22660;SDS011;11497;52.222;21.246;2023-04-30T00:01:43;24.83;;;13.95;;
22660;SDS011;11497;52.222;21.246;2023-04-30T00:04:11;19.58;;;13.35;;
22660;SDS011;11497;52.222;21.246;2023-04-30T00:06:39;21.58;;;13.82;;
22660;SDS011;11497;52.222;21.246;2023-04-30T00:09:07;23.27;;;14.23;;
22660;SDS011;11497;52.222;21.246;2023-04-30T00:11:35;23.50;;;14.65;;
22660;SDS011;11497;52.222;21.246;2023-04-30T00:14:03;22.45;;;14.50;;
22660;SDS011;11497;52.222;21.246;2023-04-30T00:16:31;20.98;;;14.50;;
22660;SDS011;11497;52.222;21.246;2023-04-30T00:18:59;21.98;;;14.35;;
22660;SDS011;11497;52.222;21.246;2023-04-30T00:21:27;22.23;;;14.43;;
22660;SDS011;11497;52.222;21.246;2023-04-30T00:23:55;24.17;;;14.25;;
22660;SDS011;11497;52.222;21.246;2023-04-30T00:26:23;23.05;;;14.23;;
22660;SDS011;11497;52.222;21.246;2023-04-30T00:28:51;21.33;;;14.13;;
22660;SDS011;11497;52.222;21.246;2023-04-30T00:31:19;25.75;;;15.18;;
22660;SDS011;11497;52.222;21.246;2023-04-30T00:33:47;23.63;;;14.68;;
22660;SDS011;11497;52.222;21.246;2023-04-30T00:36:14;24.10;;;15.60;;
22660;SDS011;11497;52.222;21.246;2023-04-30T00:38:42;21.98;;;15.77;;
22660;SDS011;11497;52.222;21.246;2023-04-30T00:41:10;23.75;;;15.98;;
22660;SDS011;11497;52.222;21.246;2023-04-30T00:43:39;24.85;;;16.30;;
22660;SDS011;11497;52.222;21.246;2023-04-30T00:46:06;23.10;;;16.15;;
22660;SDS011;11497;52.222;21.246;2023-04-30T00:48:34;33.92;;;16.92;;
22660;SDS011;11497;52.222;21.246;2023-04-30T00:51:02;23.90;;;17.63;;
22660;SDS011;11497;52.222;21.246;2023-04-30T00:53:31;28.00;;;17.30;;
22660;SDS011;11497;52.222;21.246;2023-04-30T00:56:00;28.67;;;17.65;;
22660;SDS011;11497;52.222;21.246;2023-04-30T00:58:28;24.88;;;17.67;;
22660;SDS011;11497;52.222;21.246;2023-04-30T01:00:56;25.75;;;17.70;;
22660;SDS011;11497;52.222;21.246;2023-04-30T01:03:24;26.90;;;18.17;;
22660;SDS011;11497;52.222;21.246;2023-04-30T01:05:54;25.75;;;18.63;;
22660;SDS011;11497;52.222;21.246;2023-04-30T01:08:22;27.92;;;18.92;;
22660;SDS011;11497;52.222;21.246;2023-04-30T01:10:55;27.40;;;19.15;;
22660;SDS011;11497;52.222;21.246;2023-04-30T01:13:27;25.58;;;18.73;;
22660;SDS011;11497;52.222;21.246;2023-04-30T01:18:55;27.55;;;18.60;;
22660;SDS011;11497;52.222;21.246;2023-04-30T01:21:31;35.20;;;20.33;;
22660;SDS011;11497;52.222;21.246;2023-04-30T01:26:58;30.83;;;20.42;;
22660;SDS011;11497;52.222;21.246;2023-04-30T01:29:40;27.85;;;20.15;;
22660;SDS011;11497;52.222;21.246;2023-04-30T01:32:09;30.27;;;21.02;;
22660;SDS011;11497;52.222;21.246;2023-04-30T01:34:37;32.63;;;21.27;;
22660;SDS011;11497;52.222;21.246;2023-04-30T01:42:29;29.63;;;20.38;;
22660;SDS011;11497;52.222;21.246;2023-04-30T01:48:10;33.75;;;21.70;;
22660;SDS011;11497;52.222;21.246;2023-04-30T01:51:14;33.28;;;20.92;;
22660;SDS011;11497;52.222;21.246;2023-04-30T01:53:43;31.25;;;21.20;;
22660;SDS011;11497;52.222;21.246;2023-04-30T01:56:17;33.03;;;21.25;;
22660;SDS011;11497;52.222;21.246;2023-04-30T01:58:52;30.00;;;21.10;;
22660;SDS011;11497;52.222;21.246;2023-04-30T02:01:28;34.42;;;22.15;;
22660;SDS011;11497;52.222;21.246;2023-04-30T02:03:58;34.10;;;21.45;;
22660;SDS011;11497;52.222;21.246;2023-04-30T02:06:26;32.92;;;22.23;;
22660;SDS011;11497;52.222;21.246;2023-04-30T02:08:56;30.13;;;21.67;;
22660;SDS011;11497;52.222;21.246;2023-04-30T02:11:28;34.58;;;21.63;;
22660;SDS011;11497;52.222;21.246;2023-04-30T02:13:56;33.80;;;21.63;;
22660;SDS011;11497;52.222;21.246;2023-04-30T02:16:24;38.17;;;22.27;;
22660;SDS011;11497;52.222;21.246;2023-04-30T02:18:52;31.83;;;22.10;;
22660;SDS011;11497;52.222;21.246;2023-04-30T02:21:20;33.22;;;23.15;;
22660;SDS011;11497;52.222;21.246;2023-04-30T02:23:48;32.80;;;22.55;;
22660;SDS011;11497;52.222;21.246;2023-04-30T02:26:16;33.42;;;22.60;;
22660;SDS011;11497;52.222;21.246;2023-04-30T02:28:44;33.78;;;22.98;;
22660;SDS011;11497;52.222;21.246;2023-04-30T02:31:11;33.13;;;22.63;;
22660;SDS011;11497;52.222;21.246;2023-04-30T02:33:39;32.95;;;22.73;;
22660;SDS011;11497;52.222;21.246;2023-04-30T02:36:07;36.13;;;24.05;;
22660;SDS011;11497;52.222;21.246;2023-04-30T02:38:35;36.58;;;23.85;;
22660;SDS011;11497;52.222;21.246;2023-04-30T02:41:03;32.00;;;22.55;;
22660;SDS011;11497;52.222;21.246;2023-04-30T02:43:31;36.50;;;23.25;;
22660;SDS011;11497;52.222;21.246;2023-04-30T02:45:59;33.67;;;23.10;;
22660;SDS011;11497;52.222;21.246;2023-04-30T02:48:26;34.13;;;23.70;;
22660;SDS011;11497;52.222;21.246;2023-04-30T02:50:54;35.97;;;24.13;;
22660;SDS011;11497;52.222;21.246;2023-04-30T02:53:22;38.42;;;24.27;;
22660;SDS011;11497;52.222;21.246;2023-04-30T02:55:50;36.15;;;24.90;;
22660;SDS011;11497;52.222;21.246;2023-04-30T02:58:18;35.88;;;24.98;;
22660;SDS011;11497;52.222;21.246;2023-04-30T03:00:46;38.10;;;26.17;;
22660;SDS011;11497;52.222;21.246;2023-04-30T03:03:14;37.35;;;26.65;;
22660;SDS011;11497;52.222;21.246;2023-04-30T03:05:43;39.30;;;28.17;;
22660;SDS011;11497;52.222;21.246;2023-04-30T03:08:11;43.65;;;27.75;;
22660;SDS011;11497;52.222;21.246;2023-04-30T03:10:39;42.47;;;28.73;;
22660;SDS011;11497;52.222;21.246;2023-04-30T03:13:06;39.80;;;28.20;;
22660;SDS011;11497;52.222;21.246;2023-04-30T03:15:34;35.38;;;25.20;;
22660;SDS011;11497;52.222;21.246;2023-04-30T03:18:02;36.38;;;26.05;;
22660;SDS011;11497;52.222;21.246;2023-04-30T03:20:30;37.17;;;26.02;;
22660;SDS011;11497;52.222;21.246;2023-04-30T03:22:58;35.40;;;26.55;;
22660;SDS011;11497;52.222;21.246;2023-04-30T03:25:26;33.55;;;24.65;;
22660;SDS011;11497;52.222;21.246;2023-04-30T03:27:55;38.60;;;25.98;;
22660;SDS011;11497;52.222;21.246;2023-04-30T03:30:24;37.03;;;25.75;;
22660;SDS011;11497;52.222;21.246;2023-04-30T03:32:52;36.17;;;26.42;;
22660;SDS011;11497;52.222;21.246;2023-04-30T03:35:20;37.22;;;25.10;;
22660;SDS011;11497;52.222;21.246;2023-04-30T03:37:47;38.88;;;25.33;;
22660;SDS011;11497;52.222;21.246;2023-04-30T03:40:16;34.33;;;25.20;;
22660;SDS011;11497;52.222;21.246;2023-04-30T03:42:44;36.42;;;25.55;;
22660;SDS011;11497;52.222;21.246;2023-04-30T03:45:13;36.70;;;26.27;;
22660;SDS011;11497;52.222;21.246;2023-04-30T03:47:41;38.67;;;27.67;;
22660;SDS011;11497;52.222;21.246;2023-04-30T03:50:10;37.05;;;26.65;;
22660;SDS011;11497;52.222;21.246;2023-04-30T03:52:38;39.47;;;27.75;;
22660;SDS011;11497;52.222;21.246;2023-04-30T03:55:06;40.22;;;28.48;;
22660;SDS011;11497;52.222;21.246;2023-04-30T03:57:34;41.85;;;27.92;;
22660;SDS011;11497;52.222;21.246;2023-04-30T04:00:02;37.78;;;26.73;;
22660;SDS011;11497;52.222;21.246;2023-04-30T04:02:38;38.95;;;26.05;;
22660;SDS011;11497;52.222;21.246;2023-04-30T04:05:09;36.35;;;25.80;;
22660;SDS011;11497;52.222;21.246;2023-04-30T04:07:37;35.75;;;24.98;;
22660;SDS011;11497;52.222;21.246;2023-04-30T04:10:05;35.90;;;24.50;;
22660;SDS011;11497;52.222;21.246;2023-04-30T04:12:33;32.80;;;23.40;;
22660;SDS011;11497;52.222;21.246;2023-04-30T04:15:01;30.10;;;22.60;;
22660;SDS011;11497;52.222;21.246;2023-04-30T04:17:29;31.35;;;21.20;;
22660;SDS011;11497;52.222;21.246;2023-04-30T04:19:57;27.75;;;20.33;;
22660;SDS011;11497;52.222;21.246;2023-04-30T04:22:25;26.25;;;18.67;;
22660;SDS011;11497;52.222;21.246;2023-04-30T04:24:53;25.20;;;18.10;;
22660;SDS011;11497;52.222;21.246;2023-04-30T04:27:22;21.05;;;16.52;;
22660;SDS011;11497;52.222;21.246;2023-04-30T04:29:51;23.20;;;16.92;;
22660;SDS011;11497;52.222;21.246;2023-04-30T04:32:21;24.23;;;16.63;;
22660;SDS011;11497;52.222;21.246;2023-04-30T04:34:49;21.35;;;14.35;;
22660;SDS011;11497;52.222;21.246;2023-04-30T04:37:19;18.83;;;12.60;;
22660;SDS011;11497;52.222;21.246;2023-04-30T04:39:48;17.85;;;12.35;;
22660;SDS011;11497;52.222;21.246;2023-04-30T04:42:17;17.65;;;11.75;;
22660;SDS011;11497;52.222;21.246;2023-04-30T04:44:46;17.25;;;11.52;;
22660;SDS011;11497;52.222;21.246;2023-04-30T04:47:15;15.73;;;11.77;;
22660;SDS011;11497;52.222;21.246;2023-04-30T04:49:47;13.73;;;10.40;;
22660;SDS011;11497;52.222;21.246;2023-04-30T04:52:15;11.80;;;9.55;;
22660;SDS011;11497;52.222;21.246;2023-04-30T04:54:43;15.32;;;10.20;;
22660;SDS011;11497;52.222;21.246;2023-04-30T04:57:11;15.60;;;9.32;;
22660;SDS011;11497;52.222;21.246;2023-04-30T04:59:39;13.65;;;9.40;;
22660;SDS011;11497;52.222;21.246;2023-04-30T05:02:06;12.85;;;8.65;;
22660;SDS011;11497;52.222;21.246;2023-04-30T05:04:34;14.85;;;8.93;;
22660;SDS011;11497;52.222;21.246;2023-04-30T05:07:02;14.38;;;9.20;;
22660;SDS011;11497;52.222;21.246;2023-04-30T05:09:30;14.85;;;8.93;;
22660;SDS011;11497;52.222;21.246;2023-04-30T05:11:58;14.13;;;8.30;;
22660;SDS011;11497;52.222;21.246;2023-04-30T05:14:26;13.25;;;8.48;;
22660;SDS011;11497;52.222;21.246;2023-04-30T05:16:54;13.85;;;8.85;;
22660;SDS011;11497;52.222;21.246;2023-04-30T05:19:21;11.85;;;8.65;;
22660;SDS011;11497;52.222;21.246;2023-04-30T05:21:49;12.45;;;8.43;;
22660;SDS011;11497;52.222;21.246;2023-04-30T05:24:17;15.55;;;8.90;;
22660;SDS011;11497;52.222;21.246;2023-04-30T05:26:45;12.15;;;8.73;;
22660;SDS011;11497;52.222;21.246;2023-04-30T05:29:13;12.55;;;8.70;;
22660;SDS011;11497;52.222;21.246;2023-04-30T05:31:41;12.35;;;8.73;;
22660;SDS011;11497;52.222;21.246;2023-04-30T05:34:09;14.63;;;9.05;;
22660;SDS011;11497;52.222;21.246;2023-04-30T05:36:37;14.15;;;8.88;;
22660;SDS011;11497;52.222;21.246;2023-04-30T05:39:05;13.18;;;8.98;;
22660;SDS011;11497;52.222;21.246;2023-04-30T05:41:32;16.70;;;9.90;;
22660;SDS011;11497;52.222;21.246;2023-04-30T05:44:00;12.73;;;9.60;;
22660;SDS011;11497;52.222;21.246;2023-04-30T05:46:30;15.00;;;9.60;;
22660;SDS011;11497;52.222;21.246;2023-04-30T05:48:58;13.55;;;9.48;;
22660;SDS011;11497;52.222;21.246;2023-04-30T05:51:26;13.63;;;9.15;;
22660;SDS011;11497;52.222;21.246;2023-04-30T05:53:55;12.10;;;9.38;;
22660;SDS011;11497;52.222;21.246;2023-04-30T05:56:23;15.05;;;9.27;;
22660;SDS011;11497;52.222;21.246;2023-04-30T05:58:51;14.05;;;9.68;;
22660;SDS011;11497;52.222;21.246;2023-04-30T06:01:19;17.02;;;9.63;;
22660;SDS011;11497;52.222;21.246;2023-04-30T06:03:47;14.15;;;9.88;;
22660;SDS011;11497;52.222;21.246;2023-04-30T06:06:14;14.80;;;9.57;;
22660;SDS011;11497;52.222;21.246;2023-04-30T06:08:42;13.98;;;10.25;;
22660;SDS011;11497;52.222;21.246;2023-04-30T06:11:11;15.35;;;10.40;;
22660;SDS011;11497;52.222;21.246;2023-04-30T06:13:39;13.07;;;9.73;;
22660;SDS011;11497;52.222;21.246;2023-04-30T06:16:07;14.10;;;9.40;;
22660;SDS011;11497;52.222;21.246;2023-04-30T06:18:35;13.25;;;9.40;;
22660;SDS011;11497;52.222;21.246;2023-04-30T06:21:03;14.00;;;9.25;;
22660;SDS011;11497;52.222;21.246;2023-04-30T06:23:31;13.30;;;8.90;;
22660;SDS011;11497;52.222;21.246;2023-04-30T06:25:59;11.93;;;7.95;;
22660;SDS011;11497;52.222;21.246;2023-04-30T06:28:27;10.38;;;8.02;;
22660;SDS011;11497;52.222;21.246;2023-04-30T06:30:55;11.18;;;7.93;;
22660;SDS011;11497;52.222;21.246;2023-04-30T06:33:23;11.55;;;7.57;;
22660;SDS011;11497;52.222;21.246;2023-04-30T06:35:51;15.63;;;8.23;;
22660;SDS011;11497;52.222;21.246;2023-04-30T06:38:21;13.02;;;7.50;;
22660;SDS011;11497;52.222;21.246;2023-04-30T06:40:49;11.40;;;6.55;;
22660;SDS011;11497;52.222;21.246;2023-04-30T06:43:17;11.77;;;6.30;;
22660;SDS011;11497;52.222;21.246;2023-04-30T06:45:44;8.93;;;5.68;;
22660;SDS011;11497;52.222;21.246;2023-04-30T06:48:12;9.93;;;5.40;;
22660;SDS011;11497;52.222;21.246;2023-04-30T06:50:40;8.23;;;5.32;;
22660;SDS011;11497;52.222;21.246;2023-04-30T06:53:11;8.65;;;4.90;;
22660;SDS011;11497;52.222;21.246;2023-04-30T06:55:40;7.97;;;4.82;;
22660;SDS011;11497;52.222;21.246;2023-04-30T06:58:08;8.00;;;5.20;;
22660;SDS011;11497;52.222;21.246;2023-04-30T07:00:36;8.82;;;5.43;;
22660;SDS011;11497;52.222;21.246;2023-04-30T07:03:04;8.43;;;4.68;;
22660;SDS011;11497;52.222;21.246;2023-04-30T07:05:32;7.72;;;4.05;;
22660;SDS011;11497;52.222;21.246;2023-04-30T07:08:00;8.25;;;3.50;;
22660;SDS011;11497;52.222;21.246;2023-04-30T07:10:29;9.20;;;3.75;;
22660;SDS011;11497;52.222;21.246;2023-04-30T07:12:58;8.45;;;3.92;;
22660;SDS011;11497;52.222;21.246;2023-04-30T07:15:26;7.05;;;3.78;;
22660;SDS011;11497;52.222;21.246;2023-04-30T07:17:54;8.90;;;3.63;;
22660;SDS011;11497;52.222;21.246;2023-04-30T07:20:21;7.13;;;3.88;;
22660;SDS011;11497;52.222;21.246;2023-04-30T07:22:49;8.43;;;3.80;;
22660;SDS011;11497;52.222;21.246;2023-04-30T07:25:17;9.90;;;3.97;;
22660;SDS011;11497;52.222;21.246;2023-04-30T07:27:45;6.43;;;3.83;;
22660;SDS011;11497;52.222;21.246;2023-04-30T07:30:13;6.93;;;3.10;;
22660;SDS011;11497;52.222;21.246;2023-04-30T07:32:41;5.03;;;3.35;;
22660;SDS011;11497;52.222;21.246;2023-04-30T07:35:09;8.43;;;3.72;;
22660;SDS011;11497;52.222;21.246;2023-04-30T07:37:37;7.15;;;3.97;;
22660;SDS011;11497;52.222;21.246;2023-04-30T07:40:07;9.40;;;4.25;;
22660;SDS011;11497;52.222;21.246;2023-04-30T07:42:45;8.65;;;3.90;;
22660;SDS011;11497;52.222;21.246;2023-04-30T07:45:12;6.93;;;3.85;;
22660;SDS011;11497;52.222;21.246;2023-04-30T07:47:40;6.82;;;3.42;;
22660;SDS011;11497;52.222;21.246;2023-04-30T07:50:08;9.60;;;4.68;;
22660;SDS011;11497;52.222;21.246;2023-04-30T07:52:38;8.48;;;5.07;;
22660;SDS011;11497;52.222;21.246;2023-04-30T07:55:06;7.18;;;4.80;;
22660;SDS011;11497;52.222;21.246;2023-04-30T07:57:35;8.73;;;5.00;;
22660;SDS011;11497;52.222;21.246;2023-04-30T08:00:02;7.20;;;4.93;;
22660;SDS011;11497;52.222;21.246;2023-04-30T08:02:38;9.43;;;4.88;;
22660;SDS011;11497;52.222;21.246;2023-04-30T08:05:06;9.63;;;4.40;;
22660;SDS011;11497;52.222;21.246;2023-04-30T08:07:35;8.52;;;4.32;;
22660;SDS011;11497;52.222;21.246;2023-04-30T08:10:03;7.68;;;3.78;;
22660;SDS011;11497;52.222;21.246;2023-04-30T08:12:34;7.35;;;3.55;;
22660;SDS011;11497;52.222;21.246;2023-04-30T08:15:03;7.20;;;3.55;;
22660;SDS011;11497;52.222;21.246;2023-04-30T08:17:32;8.65;;;3.00;;
22660;SDS011;11497;52.222;21.246;2023-04-30T08:20:02;6.15;;;3.20;;
22660;SDS011;11497;52.222;21.246;2023-04-30T08:22:30;8.23;;;3.22;;
22660;SDS011;11497;52.222;21.246;2023-04-30T08:24:58;6.75;;;3.42;;
22660;SDS011;11497;52.222;21.246;2023-04-30T08:27:29;10.50;;;3.83;;
22660;SDS011;11497;52.222;21.246;2023-04-30T08:29:57;7.75;;;3.75;;
22660;SDS011;11497;52.222;21.246;2023-04-30T08:32:26;6.97;;;3.63;;
22660;SDS011;11497;52.222;21.246;2023-04-30T08:34:54;8.15;;;3.97;;
22660;SDS011;11497;52.222;21.246;2023-04-30T08:37:22;6.28;;;3.53;;
22660;SDS011;11497;52.222;21.246;2023-04-30T08:39:50;6.60;;;3.33;;
22660;SDS011;11497;52.222;21.246;2023-04-30T08:42:19;8.20;;;3.65;;
22660;SDS011;11497;52.222;21.246;2023-04-30T08:44:50;7.88;;;3.65;;
22660;SDS011;11497;52.222;21.246;2023-04-30T08:47:18;7.07;;;3.50;;
22660;SDS011;11497;52.222;21.246;2023-04-30T08:49:47;6.32;;;2.92;;
22660;SDS011;11497;52.222;21.246;2023-04-30T08:52:15;5.13;;;2.90;;
22660;SDS011;11497;52.222;21.246;2023-04-30T08:54:44;10.32;;;2.92;;
22660;SDS011;11497;52.222;21.246;2023-04-30T08:57:14;7.20;;;2.58;;
22660;SDS011;11497;52.222;21.246;2023-04-30T08:59:43;6.03;;;3.00;;
22660;SDS011;11497;52.222;21.246;2023-04-30T09:02:14;8.45;;;3.35;;
22660;SDS011;11497;52.222;21.246;2023-04-30T09:04:42;6.97;;;3.88;;
22660;SDS011;11497;52.222;21.246;2023-04-30T09:07:11;6.13;;;3.65;;
22660;SDS011;11497;52.222;21.246;2023-04-30T09:09:40;7.70;;;4.68;;
22660;SDS011;11497;52.222;21.246;2023-04-30T09:12:15;11.20;;;4.50;;
22660;SDS011;11497;52.222;21.246;2023-04-30T09:17:32;6.40;;;3.97;;
22660;SDS011;11497;52.222;21.246;2023-04-30T09:20:07;6.03;;;3.75;;
22660;SDS011;11497;52.222;21.246;2023-04-30T09:22:38;6.97;;;3.85;;
22660;SDS011;11497;52.222;21.246;2023-04-30T09:25:07;7.38;;;3.67;;
22660;SDS011;11497;52.222;21.246;2023-04-30T09:27:37;9.25;;;4.00;;
22660;SDS011;11497;52.222;21.246;2023-04-30T09:30:05;10.55;;;4.10;;
22660;SDS011;11497;52.222;21.246;2023-04-30T09:32:33;7.57;;;3.95;;
22660;SDS011;11497;52.222;21.246;2023-04-30T09:35:01;8.75;;;4.72;;
22660;SDS011;11497;52.222;21.246;2023-04-30T09:37:36;6.07;;;4.00;;
22660;SDS011;11497;52.222;21.246;2023-04-30T09:40:04;7.65;;;4.05;;
22660;SDS011;11497;52.222;21.246;2023-04-30T09:42:33;7.03;;;4.20;;
22660;SDS011;11497;52.222;21.246;2023-04-30T09:45:01;9.35;;;3.78;;
22660;SDS011;11497;52.222;21.246;2023-04-30T09:47:31;8.43;;;3.95;;
22660;SDS011;11497;52.222;21.246;2023-04-30T09:49:59;5.95;;;3.33;;
22660;SDS011;11497;52.222;21.246;2023-04-30T09:52:27;6.35;;;3.85;;
22660;SDS011;11497;52.222;21.246;2023-04-30T09:54:55;6.97;;;3.60;;
22660;SDS011;11497;52.222;21.246;2023-04-30T09:57:23;8.18;;;3.47;;
22660;SDS011;11497;52.222;21.246;2023-04-30T09:59:52;5.50;;;3.70;;
22660;SDS011;11497;52.222;21.246;2023-04-30T10:02:21;5.43;;;3.58;;
22660;SDS011;11497;52.222;21.246;2023-04-30T10:04:52;10.25;;;3.50;;
22660;SDS011;11497;52.222;21.246;2023-04-30T10:07:23;6.68;;;3.10;;
22660;SDS011;11497;52.222;21.246;2023-04-30T10:10:03;4.82;;;2.95;;
22660;SDS011;11497;52.222;21.246;2023-04-30T10:12:43;4.45;;;2.70;;
22660;SDS011;11497;52.222;21.246;2023-04-30T10:15:20;5.50;;;2.38;;
22660;SDS011;11497;52.222;21.246;2023-04-30T10:17:52;4.45;;;2.60;;
22660;SDS011;11497;52.222;21.246;2023-04-30T10:20:28;5.35;;;2.70;;
22660;SDS011;11497;52.222;21.246;2023-04-30T10:23:00;4.88;;;2.67;;
22660;SDS011;11497;52.222;21.246;2023-04-30T10:25:28;6.78;;;2.33;;
22660;SDS011;11497;52.222;21.246;2023-04-30T10:27:58;7.32;;;2.30;;
22660;SDS011;11497;52.222;21.246;2023-04-30T10:30:29;4.78;;;2.45;;
22660;SDS011;11497;52.222;21.246;2023-04-30T10:36:04;3.00;;;2.10;;
22660;SDS011;11497;52.222;21.246;2023-04-30T10:38:37;4.13;;;2.10;;
22660;SDS011;11497;52.222;21.246;2023-04-30T10:41:06;6.60;;;2.65;;
22660;SDS011;11497;52.222;21.246;2023-04-30T10:43:35;5.60;;;2.38;;
22660;SDS011;11497;52.222;21.246;2023-04-30T10:46:03;4.85;;;2.40;;
22660;SDS011;11497;52.222;21.246;2023-04-30T10:48:32;5.30;;;2.45;;
22660;SDS011;11497;52.222;21.246;2023-04-30T10:51:01;3.38;;;2.08;;
22660;SDS011;11497;52.222;21.246;2023-04-30T10:53:30;4.53;;;2.38;;
22660;SDS011;11497;52.222;21.246;2023-04-30T10:56:00;6.03;;;2.35;;
22660;SDS011;11497;52.222;21.246;2023-04-30T10:58:35;6.93;;;2.33;;
22660;SDS011;11497;52.222;21.246;2023-04-30T11:01:12;8.35;;;2.17;;
22660;SDS011;11497;52.222;21.246;2023-04-30T11:04:03;11.32;;;2.45;;
22660;SDS011;11497;52.222;21.246;2023-04-30T11:07:17;6.40;;;2.22;;
22660;SDS011;11497;52.222;21.246;2023-04-30T11:09:35;5.70;;;2.10;;
22660;SDS011;11497;52.222;21.246;2023-04-30T11:12:10;8.57;;;2.20;;
22660;SDS011;11497;52.222;21.246;2023-04-30T11:14:45;6.03;;;2.25;;
22660;SDS011;11497;52.222;21.246;2023-04-30T11:17:20;4.88;;;2.08;;
22660;SDS011;11497;52.222;21.246;2023-04-30T11:19:50;6.00;;;1.90;;
22660;SDS011;11497;52.222;21.246;2023-04-30T11:22:20;5.53;;;2.10;;
22660;SDS011;11497;52.222;21.246;2023-04-30T11:24:54;3.55;;;1.88;;
22660;SDS011;11497;52.222;21.246;2023-04-30T11:27:31;5.07;;;1.90;;
22660;SDS011;11497;52.222;21.246;2023-04-30T11:30:01;3.55;;;1.92;;
22660;SDS011;11497;52.222;21.246;2023-04-30T11:32:36;5.00;;;2.30;;
22660;SDS011;11497;52.222;21.246;2023-04-30T11:35:05;5.40;;;2.33;;
22660;SDS011;11497;52.222;21.246;2023-04-30T11:37:34;4.47;;;1.90;;
22660;SDS011;11497;52.222;21.246;2023-04-30T11:40:04;4.97;;;1.92;;
22660;SDS011;11497;52.222;21.246;2023-04-30T11:42:34;5.13;;;2.00;;
22660;SDS011;11497;52.222;21.246;2023-04-30T11:45:09;8.30;;;1.90;;
22660;SDS011;11497;52.222;21.246;2023-04-30T11:47:49;2.60;;;1.55;;
22660;SDS011;11497;52.222;21.246;2023-04-30T11:50:21;3.03;;;1.60;;
22660;SDS011;11497;52.222;21.246;2023-04-30T11:52:56;5.88;;;2.13;;
22660;SDS011;11497;52.222;21.246;2023-04-30T11:57:56;4.15;;;1.58;;
22660;SDS011;11497;52.222;21.246;2023-04-30T12:00:27;3.08;;;1.95;;
22660;SDS011;11497;52.222;21.246;2023-04-30T12:02:56;5.93;;;1.90;;
22660;SDS011;11497;52.222;21.246;2023-04-30T12:05:27;4.85;;;1.70;;
22660;SDS011;11497;52.222;21.246;2023-04-30T12:10:25;3.47;;;1.75;;
22660;SDS011;11497;52.222;21.246;2023-04-30T12:12:53;4.55;;;2.25;;
22660;SDS011;11497;52.222;21.246;2023-04-30T12:15:22;4.53;;;1.92;;
22660;SDS011;11497;52.222;21.246;2023-04-30T12:17:55;4.63;;;1.77;;
22660;SDS011;11497;52.222;21.246;2023-04-30T12:20:25;4.45;;;1.60;;
22660;SDS011;11497;52.222;21.246;2023-04-30T12:22:55;5.05;;;2.08;;
22660;SDS011;11497;52.222;21.246;2023-04-30T12:25:25;11.90;;;2.42;;
22660;SDS011;11497;52.222;21.246;2023-04-30T12:27:54;5.97;;;2.20;;
22660;SDS011;11497;52.222;21.246;2023-04-30T12:30:26;7.90;;;2.88;;
22660;SDS011;11497;52.222;21.246;2023-04-30T12:32:55;4.75;;;2.00;;
22660;SDS011;11497;52.222;21.246;2023-04-30T12:35:26;5.05;;;1.90;;
22660;SDS011;11497;52.222;21.246;2023-04-30T12:38:06;5.60;;;2.10;;
22660;SDS011;11497;52.222;21.246;2023-04-30T12:40:35;5.20;;;1.95;;
22660;SDS011;11497;52.222;21.246;2023-04-30T12:43:05;3.55;;;2.15;;
22660;SDS011;11497;52.222;21.246;2023-04-30T12:45:44;2.58;;;1.77;;
22660;SDS011;11497;52.222;21.246;2023-04-30T12:50:58;3.65;;;1.70;;
22660;SDS011;11497;52.222;21.246;2023-04-30T12:53:27;3.40;;;1.70;;
22660;SDS011;11497;52.222;21.246;2023-04-30T12:58:45;5.47;;;1.90;;
22660;SDS011;11497;52.222;21.246;2023-04-30T13:01:16;4.72;;;1.85;;
22660;SDS011;11497;52.222;21.246;2023-04-30T13:03:50;3.83;;;1.75;;
22660;SDS011;11497;52.222;21.246;2023-04-30T13:06:20;4.70;;;2.03;;
22660;SDS011;11497;52.222;21.246;2023-04-30T13:08:49;4.63;;;2.05;;
22660;SDS011;11497;52.222;21.246;2023-04-30T13:11:24;3.88;;;2.10;;
22660;SDS011;11497;52.222;21.246;2023-04-30T13:13:53;3.95;;;1.90;;
22660;SDS011;11497;52.222;21.246;2023-04-30T13:16:22;2.90;;;1.70;;
22660;SDS011;11497;52.222;21.246;2023-04-30T13:18:51;7.72;;;1.70;;
22660;SDS011;11497;52.222;21.246;2023-04-30T13:21:19;6.45;;;1.83;;
22660;SDS011;11497;52.222;21.246;2023-04-30T13:23:47;5.13;;;1.77;;
22660;SDS011;11497;52.222;21.246;2023-04-30T13:26:20;3.35;;;1.90;;
22660;SDS011;11497;52.222;21.246;2023-04-30T13:28:49;4.38;;;1.83;;
22660;SDS011;11497;52.222;21.246;2023-04-30T13:31:17;5.07;;;1.80;;
22660;SDS011;11497;52.222;21.246;2023-04-30T13:33:45;3.58;;;1.92;;
22660;SDS011;11497;52.222;21.246;2023-04-30T13:36:13;5.97;;;1.85;;
22660;SDS011;11497;52.222;21.246;2023-04-30T13:38:41;4.43;;;1.80;;
22660;SDS011;11497;52.222;21.246;2023-04-30T13:41:09;5.18;;;2.03;;
22660;SDS011;11497;52.222;21.246;2023-04-30T13:43:37;4.90;;;1.85;;
22660;SDS011;11497;52.222;21.246;2023-04-30T13:46:08;3.75;;;1.52;;
22660;SDS011;11497;52.222;21.246;2023-04-30T13:48:36;4.22;;;1.73;;
22660;SDS011;11497;52.222;21.246;2023-04-30T13:51:05;5.35;;;2.30;;
22660;SDS011;11497;52.222;21.246;2023-04-30T13:53:33;4.13;;;1.88;;
22660;SDS011;11497;52.222;21.246;2023-04-30T13:56:03;4.32;;;1.98;;
22660;SDS011;11497;52.222;21.246;2023-04-30T13:58:32;4.45;;;2.70;;
22660;SDS011;11497;52.222;21.246;2023-04-30T14:01:00;5.97;;;2.10;;
22660;SDS011;11497;52.222;21.246;2023-04-30T14:03:28;3.83;;;1.80;;
22660;SDS011;11497;52.222;21.246;2023-04-30T14:05:56;3.10;;;1.98;;
22660;SDS011;11497;52.222;21.246;2023-04-30T14:08:24;6.70;;;3.92;;
22660;SDS011;11497;52.222;21.246;2023-04-30T14:10:52;6.63;;;1.70;;
22660;SDS011;11497;52.222;21.246;2023-04-30T14:13:20;4.03;;;1.83;;
22660;SDS011;11497;52.222;21.246;2023-04-30T14:15:48;4.82;;;1.73;;
22660;SDS011;11497;52.222;21.246;2023-04-30T14:18:16;5.22;;;1.95;;
22660;SDS011;11497;52.222;21.246;2023-04-30T14:20:44;4.53;;;1.70;;
22660;SDS011;11497;52.222;21.246;2023-04-30T14:23:12;3.55;;;1.65;;
22660;SDS011;11497;52.222;21.246;2023-04-30T14:25:40;3.92;;;1.73;;
22660;SDS011;11497;52.222;21.246;2023-04-30T14:28:08;4.05;;;1.45;;
22660;SDS011;11497;52.222;21.246;2023-04-30T14:30:36;4.60;;;1.90;;
22660;SDS011;11497;52.222;21.246;2023-04-30T14:33:05;4.38;;;1.85;;
22660;SDS011;11497;52.222;21.246;2023-04-30T14:35:33;4.53;;;1.70;;
22660;SDS011;11497;52.222;21.246;2023-04-30T14:38:01;3.85;;;1.50;;
22660;SDS011;11497;52.222;21.246;2023-04-30T14:40:29;5.60;;;2.00;;
22660;SDS011;11497;52.222;21.246;2023-04-30T14:42:57;6.28;;;1.60;;
22660;SDS011;11497;52.222;21.246;2023-04-30T14:45:25;3.20;;;1.40;;
22660;SDS011;11497;52.222;21.246;2023-04-30T14:47:54;2.83;;;1.48;;
22660;SDS011;11497;52.222;21.246;2023-04-30T14:50:22;4.47;;;1.45;;
22660;SDS011;11497;52.222;21.246;2023-04-30T14:52:50;3.70;;;1.60;;
22660;SDS011;11497;52.222;21.246;2023-04-30T14:55:18;5.97;;;1.85;;
22660;SDS011;11497;52.222;21.246;2023-04-30T14:57:46;4.57;;;1.60;;
22660;SDS011;11497;52.222;21.246;2023-04-30T15:00:14;2.95;;;1.33;;
22660;SDS011;11497;52.222;21.246;2023-04-30T15:02:42;4.93;;;1.80;;
22660;SDS011;11497;52.222;21.246;2023-04-30T15:05:10;3.80;;;1.60;;
22660;SDS011;11497;52.222;21.246;2023-04-30T15:07:38;3.70;;;1.52;;